sensor_id;sensor_type;location;lat;lon;timestamp;P1;durP1;ratioP1;P2;durP2;ratioP2
5890;SDS011;2971;52.420;7.080;2022-07-06T00:01:20;5.03;;;3.77;;
5890;SDS011;2971;52.420;7.080;2022-07-06T00:03:46;6.17;;;3.83;;
5890;SDS011;2971;52.420;7.080;2022-07-06T00:06:11;5.07;;;4.10;;
5890;SDS011;2971;52.420;7.080;2022-07-06T00:08:37;7.83;;;4.40;;
5890;SDS011;2971;52.420;7.080;2022-07-06T00:11:03;4.47;;;4.07;;
5890;SDS011;2971;52.420;7.080;2022-07-06T00:13:29;8.27;;;4.40;;
5890;SDS011;2971;52.420;7.080;2022-07-06T00:15:54;5.67;;;4.30;;
5890;SDS011;2971;52.420;7.080;2022-07-06T00:18:20;6.23;;;4.73;;
5890;SDS011;2971;52.420;7.080;2022-07-06T00:20:45;7.17;;;4.60;;
5890;SDS011;2971;52.420;7.080;2022-07-06T00:23:10;8.90;;;4.80;;
5890;SDS011;2971;52.420;7.080;2022-07-06T00:25:37;6.33;;;4.50;;
5890;SDS011;2971;52.420;7.080;2022-07-06T00:28:03;6.80;;;4.80;;
5890;SDS011;2971;52.420;7.080;2022-07-06T00:30:30;6.73;;;5.27;;
5890;SDS011;2971;52.420;7.080;2022-07-06T00:32:56;7.40;;;5.23;;
5890;SDS011;2971;52.420;7.080;2022-07-06T00:35:23;7.37;;;5.20;;
5890;SDS011;2971;52.420;7.080;2022-07-06T00:37:51;8.67;;;4.90;;
5890;SDS011;2971;52.420;7.080;2022-07-06T00:40:17;6.73;;;5.27;;
5890;SDS011;2971;52.420;7.080;2022-07-06T00:42:43;7.20;;;5.53;;
5890;SDS011;2971;52.420;7.080;2022-07-06T00:45:13;9.70;;;5.27;;
5890;SDS011;2971;52.420;7.080;2022-07-06T00:47:39;9.57;;;5.50;;
5890;SDS011;2971;52.420;7.080;2022-07-06T00:50:06;7.20;;;5.30;;
5890;SDS011;2971;52.420;7.080;2022-07-06T00:52:42;7.30;;;5.80;;
5890;SDS011;2971;52.420;7.080;2022-07-06T00:55:09;8.00;;;6.00;;
5890;SDS011;2971;52.420;7.080;2022-07-06T00:57:35;7.70;;;6.00;;
5890;SDS011;2971;52.420;7.080;2022-07-06T01:00:02;9.23;;;5.57;;
5890;SDS011;2971;52.420;7.080;2022-07-06T01:02:32;7.97;;;5.97;;
5890;SDS011;2971;52.420;7.080;2022-07-06T01:04:58;7.63;;;5.80;;
5890;SDS011;2971;52.420;7.080;2022-07-06T01:07:24;9.07;;;5.60;;
5890;SDS011;2971;52.420;7.080;2022-07-06T01:09:50;8.93;;;6.43;;
5890;SDS011;2971;52.420;7.080;2022-07-06T01:12:15;6.47;;;5.80;;
5890;SDS011;2971;52.420;7.080;2022-07-06T01:14:41;7.40;;;6.57;;
5890;SDS011;2971;52.420;7.080;2022-07-06T01:17:07;9.70;;;6.90;;
5890;SDS011;2971;52.420;7.080;2022-07-06T01:19:33;7.83;;;6.90;;
5890;SDS011;2971;52.420;7.080;2022-07-06T01:21:58;7.40;;;6.60;;
5890;SDS011;2971;52.420;7.080;2022-07-06T01:24:24;8.57;;;7.30;;
5890;SDS011;2971;52.420;7.080;2022-07-06T01:26:50;8.57;;;6.80;;
5890;SDS011;2971;52.420;7.080;2022-07-06T01:29:15;7.50;;;6.80;;
5890;SDS011;2971;52.420;7.080;2022-07-06T01:31:47;7.93;;;6.30;;
5890;SDS011;2971;52.420;7.080;2022-07-06T01:34:14;7.77;;;6.83;;
5890;SDS011;2971;52.420;7.080;2022-07-06T01:36:40;7.70;;;6.53;;
5890;SDS011;2971;52.420;7.080;2022-07-06T01:39:07;8.83;;;6.50;;
5890;SDS011;2971;52.420;7.080;2022-07-06T01:41:33;8.23;;;6.60;;
5890;SDS011;2971;52.420;7.080;2022-07-06T01:43:58;9.73;;;6.70;;
5890;SDS011;2971;52.420;7.080;2022-07-06T01:46:24;8.77;;;6.77;;
5890;SDS011;2971;52.420;7.080;2022-07-06T01:48:49;7.53;;;6.70;;
5890;SDS011;2971;52.420;7.080;2022-07-06T01:51:15;9.30;;;6.60;;
5890;SDS011;2971;52.420;7.080;2022-07-06T01:53:40;7.90;;;7.07;;
5890;SDS011;2971;52.420;7.080;2022-07-06T01:56:06;7.60;;;6.77;;
5890;SDS011;2971;52.420;7.080;2022-07-06T01:58:32;8.93;;;6.63;;
5890;SDS011;2971;52.420;7.080;2022-07-06T02:00:57;7.80;;;6.50;;
5890;SDS011;2971;52.420;7.080;2022-07-06T02:03:23;9.20;;;6.43;;
5890;SDS011;2971;52.420;7.080;2022-07-06T02:05:48;7.60;;;6.53;;
5890;SDS011;2971;52.420;7.080;2022-07-06T02:08:14;8.17;;;6.53;;
5890;SDS011;2971;52.420;7.080;2022-07-06T02:10:39;8.23;;;6.67;;
5890;SDS011;2971;52.420;7.080;2022-07-06T02:13:05;8.80;;;6.57;;
5890;SDS011;2971;52.420;7.080;2022-07-06T02:15:30;7.60;;;6.70;;
5890;SDS011;2971;52.420;7.080;2022-07-06T02:17:56;8.50;;;6.57;;
5890;SDS011;2971;52.420;7.080;2022-07-06T02:20:21;7.47;;;6.33;;
5890;SDS011;2971;52.420;7.080;2022-07-06T02:22:46;6.47;;;5.83;;
5890;SDS011;2971;52.420;7.080;2022-07-06T02:25:12;6.63;;;5.97;;
5890;SDS011;2971;52.420;7.080;2022-07-06T02:27:37;7.93;;;6.40;;
5890;SDS011;2971;52.420;7.080;2022-07-06T02:30:03;8.33;;;6.47;;
5890;SDS011;2971;52.420;7.080;2022-07-06T02:32:31;8.67;;;6.60;;
5890;SDS011;2971;52.420;7.080;2022-07-06T02:34:56;8.97;;;6.07;;
5890;SDS011;2971;52.420;7.080;2022-07-06T02:37:23;8.30;;;6.87;;
5890;SDS011;2971;52.420;7.080;2022-07-06T02:39:49;6.70;;;6.00;;
5890;SDS011;2971;52.420;7.080;2022-07-06T02:42:14;6.83;;;6.13;;
5890;SDS011;2971;52.420;7.080;2022-07-06T02:44:40;8.57;;;6.20;;
5890;SDS011;2971;52.420;7.080;2022-07-06T02:47:05;8.07;;;6.10;;
5890;SDS011;2971;52.420;7.080;2022-07-06T02:49:31;8.57;;;6.07;;
5890;SDS011;2971;52.420;7.080;2022-07-06T02:51:56;6.23;;;5.63;;
5890;SDS011;2971;52.420;7.080;2022-07-06T02:54:21;6.93;;;5.70;;
5890;SDS011;2971;52.420;7.080;2022-07-06T02:56:47;7.70;;;6.00;;
5890;SDS011;2971;52.420;7.080;2022-07-06T02:59:17;8.80;;;5.60;;
5890;SDS011;2971;52.420;7.080;2022-07-06T03:01:42;6.57;;;5.80;;
5890;SDS011;2971;52.420;7.080;2022-07-06T03:04:08;8.17;;;6.07;;
5890;SDS011;2971;52.420;7.080;2022-07-06T03:06:33;6.30;;;5.57;;
5890;SDS011;2971;52.420;7.080;2022-07-06T03:08:59;6.27;;;5.60;;
5890;SDS011;2971;52.420;7.080;2022-07-06T03:11:25;6.93;;;5.53;;
5890;SDS011;2971;52.420;7.080;2022-07-06T03:13:50;8.30;;;5.97;;
5890;SDS011;2971;52.420;7.080;2022-07-06T03:16:16;9.30;;;5.90;;
5890;SDS011;2971;52.420;7.080;2022-07-06T03:18:41;9.90;;;5.90;;
5890;SDS011;2971;52.420;7.080;2022-07-06T03:21:07;6.07;;;5.40;;
5890;SDS011;2971;52.420;7.080;2022-07-06T03:23:32;7.17;;;5.43;;
5890;SDS011;2971;52.420;7.080;2022-07-06T03:25:57;6.90;;;5.53;;
5890;SDS011;2971;52.420;7.080;2022-07-06T03:28:23;9.43;;;5.50;;
5890;SDS011;2971;52.420;7.080;2022-07-06T03:30:48;9.20;;;5.80;;
5890;SDS011;2971;52.420;7.080;2022-07-06T03:33:14;9.27;;;6.00;;
5890;SDS011;2971;52.420;7.080;2022-07-06T03:35:39;8.47;;;5.60;;
5890;SDS011;2971;52.420;7.080;2022-07-06T03:38:04;8.00;;;5.80;;
5890;SDS011;2971;52.420;7.080;2022-07-06T03:40:30;7.70;;;5.43;;
5890;SDS011;2971;52.420;7.080;2022-07-06T03:42:55;6.73;;;5.50;;
5890;SDS011;2971;52.420;7.080;2022-07-06T03:45:21;5.97;;;5.23;;
5890;SDS011;2971;52.420;7.080;2022-07-06T03:47:46;7.37;;;5.10;;
5890;SDS011;2971;52.420;7.080;2022-07-06T03:50:11;5.43;;;4.93;;
5890;SDS011;2971;52.420;7.080;2022-07-06T03:52:37;9.17;;;5.40;;
5890;SDS011;2971;52.420;7.080;2022-07-06T03:55:07;8.83;;;5.00;;
5890;SDS011;2971;52.420;7.080;2022-07-06T03:57:34;6.50;;;4.70;;
5890;SDS011;2971;52.420;7.080;2022-07-06T03:59:59;6.77;;;4.47;;
5890;SDS011;2971;52.420;7.080;2022-07-06T04:02:24;6.20;;;4.70;;
5890;SDS011;2971;52.420;7.080;2022-07-06T04:04:50;6.00;;;4.60;;
5890;SDS011;2971;52.420;7.080;2022-07-06T04:07:15;6.30;;;4.57;;
5890;SDS011;2971;52.420;7.080;2022-07-06T04:09:41;7.07;;;4.57;;
5890;SDS011;2971;52.420;7.080;2022-07-06T04:12:06;6.23;;;4.83;;
5890;SDS011;2971;52.420;7.080;2022-07-06T04:14:32;6.40;;;4.47;;
5890;SDS011;2971;52.420;7.080;2022-07-06T04:16:57;6.27;;;4.83;;
5890;SDS011;2971;52.420;7.080;2022-07-06T04:19:23;4.83;;;4.20;;
5890;SDS011;2971;52.420;7.080;2022-07-06T04:21:48;5.83;;;4.57;;
5890;SDS011;2971;52.420;7.080;2022-07-06T04:24:13;8.07;;;4.70;;
5890;SDS011;2971;52.420;7.080;2022-07-06T04:26:39;8.80;;;5.13;;
5890;SDS011;2971;52.420;7.080;2022-07-06T04:29:04;7.37;;;4.43;;
5890;SDS011;2971;52.420;7.080;2022-07-06T04:31:30;7.87;;;4.60;;
5890;SDS011;2971;52.420;7.080;2022-07-06T04:33:55;6.13;;;4.43;;
5890;SDS011;2971;52.420;7.080;2022-07-06T04:36:20;8.70;;;4.40;;
5890;SDS011;2971;52.420;7.080;2022-07-06T04:38:46;5.97;;;4.50;;
5890;SDS011;2971;52.420;7.080;2022-07-06T04:41:12;6.47;;;4.60;;
5890;SDS011;2971;52.420;7.080;2022-07-06T04:43:38;6.07;;;4.30;;
5890;SDS011;2971;52.420;7.080;2022-07-06T04:46:03;5.77;;;4.20;;
5890;SDS011;2971;52.420;7.080;2022-07-06T04:48:30;6.90;;;4.63;;
5890;SDS011;2971;52.420;7.080;2022-07-06T04:50:57;7.00;;;3.80;;
5890;SDS011;2971;52.420;7.080;2022-07-06T04:53:22;5.70;;;4.17;;
5890;SDS011;2971;52.420;7.080;2022-07-06T04:55:48;6.77;;;4.03;;
5890;SDS011;2971;52.420;7.080;2022-07-06T04:58:13;7.63;;;4.30;;
5890;SDS011;2971;52.420;7.080;2022-07-06T05:00:38;6.83;;;4.17;;
5890;SDS011;2971;52.420;7.080;2022-07-06T05:03:04;9.20;;;4.40;;
5890;SDS011;2971;52.420;7.080;2022-07-06T05:05:29;7.07;;;4.23;;
5890;SDS011;2971;52.420;7.080;2022-07-06T05:07:55;6.40;;;3.83;;
5890;SDS011;2971;52.420;7.080;2022-07-06T05:10:20;7.80;;;3.97;;
5890;SDS011;2971;52.420;7.080;2022-07-06T05:12:46;7.63;;;3.90;;
5890;SDS011;2971;52.420;7.080;2022-07-06T05:15:11;8.77;;;4.00;;
5890;SDS011;2971;52.420;7.080;2022-07-06T05:17:37;6.03;;;3.90;;
5890;SDS011;2971;52.420;7.080;2022-07-06T05:20:02;8.00;;;4.20;;
5890;SDS011;2971;52.420;7.080;2022-07-06T05:22:29;5.27;;;3.47;;
5890;SDS011;2971;52.420;7.080;2022-07-06T05:24:54;4.43;;;3.90;;
5890;SDS011;2971;52.420;7.080;2022-07-06T05:27:20;5.47;;;3.50;;
5890;SDS011;2971;52.420;7.080;2022-07-06T05:29:45;9.27;;;3.77;;
5890;SDS011;2971;52.420;7.080;2022-07-06T05:32:10;6.77;;;3.97;;
5890;SDS011;2971;52.420;7.080;2022-07-06T05:34:36;10.37;;;4.30;;
5890;SDS011;2971;52.420;7.080;2022-07-06T05:37:03;9.00;;;3.97;;
5890;SDS011;2971;52.420;7.080;2022-07-06T05:39:28;5.77;;;3.93;;
5890;SDS011;2971;52.420;7.080;2022-07-06T05:41:53;5.83;;;3.60;;
5890;SDS011;2971;52.420;7.080;2022-07-06T05:44:19;7.43;;;3.90;;
5890;SDS011;2971;52.420;7.080;2022-07-06T05:46:44;6.10;;;3.60;;
5890;SDS011;2971;52.420;7.080;2022-07-06T05:49:10;7.87;;;3.97;;
5890;SDS011;2971;52.420;7.080;2022-07-06T05:51:53;7.37;;;3.90;;
5890;SDS011;2971;52.420;7.080;2022-07-06T05:54:19;7.43;;;4.07;;
5890;SDS011;2971;52.420;7.080;2022-07-06T05:56:44;6.93;;;3.60;;
5890;SDS011;2971;52.420;7.080;2022-07-06T05:59:10;9.23;;;3.90;;
5890;SDS011;2971;52.420;7.080;2022-07-06T06:01:35;10.27;;;3.97;;
5890;SDS011;2971;52.420;7.080;2022-07-06T06:04:00;6.27;;;3.47;;
5890;SDS011;2971;52.420;7.080;2022-07-06T06:06:26;5.80;;;3.47;;
5890;SDS011;2971;52.420;7.080;2022-07-06T06:08:52;5.73;;;3.30;;
5890;SDS011;2971;52.420;7.080;2022-07-06T06:11:17;3.60;;;3.00;;
5890;SDS011;2971;52.420;7.080;2022-07-06T06:13:43;5.73;;;3.17;;
5890;SDS011;2971;52.420;7.080;2022-07-06T06:16:08;7.87;;;2.83;;
5890;SDS011;2971;52.420;7.080;2022-07-06T06:18:33;4.00;;;2.50;;
5890;SDS011;2971;52.420;7.080;2022-07-06T06:20:59;4.87;;;3.20;;
5890;SDS011;2971;52.420;7.080;2022-07-06T06:23:24;4.37;;;2.70;;
5890;SDS011;2971;52.420;7.080;2022-07-06T06:25:50;6.40;;;2.63;;
5890;SDS011;2971;52.420;7.080;2022-07-06T06:28:15;8.10;;;2.63;;
5890;SDS011;2971;52.420;7.080;2022-07-06T06:30:40;7.77;;;2.80;;
5890;SDS011;2971;52.420;7.080;2022-07-06T06:35:38;5.93;;;2.57;;
5890;SDS011;2971;52.420;7.080;2022-07-06T06:38:07;7.47;;;2.43;;
5890;SDS011;2971;52.420;7.080;2022-07-06T06:40:33;8.40;;;2.50;;
5890;SDS011;2971;52.420;7.080;2022-07-06T06:42:58;3.57;;;2.20;;
5890;SDS011;2971;52.420;7.080;2022-07-06T06:45:24;6.30;;;2.40;;
5890;SDS011;2971;52.420;7.080;2022-07-06T06:47:50;5.60;;;2.17;;
5890;SDS011;2971;52.420;7.080;2022-07-06T06:50:15;7.20;;;2.07;;
5890;SDS011;2971;52.420;7.080;2022-07-06T06:52:40;4.83;;;2.10;;
5890;SDS011;2971;52.420;7.080;2022-07-06T06:55:06;5.97;;;2.00;;
5890;SDS011;2971;52.420;7.080;2022-07-06T06:57:32;4.93;;;2.03;;
5890;SDS011;2971;52.420;7.080;2022-07-06T06:59:57;3.87;;;1.90;;
5890;SDS011;2971;52.420;7.080;2022-07-06T07:02:23;4.43;;;1.90;;
5890;SDS011;2971;52.420;7.080;2022-07-06T07:04:48;3.30;;;1.60;;
5890;SDS011;2971;52.420;7.080;2022-07-06T07:07:14;5.73;;;1.83;;
5890;SDS011;2971;52.420;7.080;2022-07-06T07:09:39;3.47;;;1.60;;
5890;SDS011;2971;52.420;7.080;2022-07-06T07:12:04;2.67;;;1.07;;
5890;SDS011;2971;52.420;7.080;2022-07-06T07:14:31;3.80;;;1.50;;
5890;SDS011;2971;52.420;7.080;2022-07-06T07:16:56;4.70;;;1.60;;
5890;SDS011;2971;52.420;7.080;2022-07-06T07:19:23;4.50;;;1.30;;
5890;SDS011;2971;52.420;7.080;2022-07-06T07:21:48;3.67;;;1.33;;
5890;SDS011;2971;52.420;7.080;2022-07-06T07:24:13;1.50;;;1.10;;
5890;SDS011;2971;52.420;7.080;2022-07-06T07:26:39;7.17;;;1.33;;
5890;SDS011;2971;52.420;7.080;2022-07-06T07:29:04;4.43;;;1.40;;
5890;SDS011;2971;52.420;7.080;2022-07-06T07:31:30;2.17;;;1.30;;
5890;SDS011;2971;52.420;7.080;2022-07-06T07:33:58;3.60;;;1.30;;
5890;SDS011;2971;52.420;7.080;2022-07-06T07:36:24;3.47;;;1.40;;
5890;SDS011;2971;52.420;7.080;2022-07-06T07:38:50;4.47;;;1.57;;
5890;SDS011;2971;52.420;7.080;2022-07-06T07:41:16;5.53;;;1.60;;
5890;SDS011;2971;52.420;7.080;2022-07-06T07:43:42;4.20;;;1.40;;
5890;SDS011;2971;52.420;7.080;2022-07-06T07:46:07;3.87;;;1.50;;
5890;SDS011;2971;52.420;7.080;2022-07-06T07:48:33;3.07;;;1.30;;
5890;SDS011;2971;52.420;7.080;2022-07-06T07:50:58;1.57;;;0.93;;
5890;SDS011;2971;52.420;7.080;2022-07-06T07:53:23;3.60;;;1.40;;
5890;SDS011;2971;52.420;7.080;2022-07-06T07:55:49;1.83;;;0.97;;
5890;SDS011;2971;52.420;7.080;2022-07-06T07:58:14;2.13;;;1.10;;
5890;SDS011;2971;52.420;7.080;2022-07-06T08:00:40;2.07;;;0.93;;
5890;SDS011;2971;52.420;7.080;2022-07-06T08:03:05;1.20;;;0.90;;
5890;SDS011;2971;52.420;7.080;2022-07-06T08:05:30;6.83;;;1.20;;
5890;SDS011;2971;52.420;7.080;2022-07-06T08:07:56;3.67;;;1.33;;
5890;SDS011;2971;52.420;7.080;2022-07-06T08:10:22;3.17;;;1.33;;
5890;SDS011;2971;52.420;7.080;2022-07-06T08:12:47;3.57;;;1.20;;
5890;SDS011;2971;52.420;7.080;2022-07-06T08:15:13;2.33;;;1.20;;
5890;SDS011;2971;52.420;7.080;2022-07-06T08:17:38;2.27;;;1.13;;
5890;SDS011;2971;52.420;7.080;2022-07-06T08:20:05;2.87;;;1.20;;
5890;SDS011;2971;52.420;7.080;2022-07-06T08:22:31;3.33;;;1.40;;
5890;SDS011;2971;52.420;7.080;2022-07-06T08:24:56;5.10;;;1.27;;
5890;SDS011;2971;52.420;7.080;2022-07-06T08:27:23;2.57;;;1.40;;
5890;SDS011;2971;52.420;7.080;2022-07-06T08:29:48;2.40;;;1.10;;
5890;SDS011;2971;52.420;7.080;2022-07-06T08:32:14;2.70;;;1.20;;
5890;SDS011;2971;52.420;7.080;2022-07-06T08:34:39;3.57;;;1.10;;
5890;SDS011;2971;52.420;7.080;2022-07-06T08:37:05;1.70;;;0.80;;
5890;SDS011;2971;52.420;7.080;2022-07-06T08:39:30;3.50;;;1.17;;
5890;SDS011;2971;52.420;7.080;2022-07-06T08:41:56;2.37;;;1.00;;
5890;SDS011;2971;52.420;7.080;2022-07-06T08:44:21;2.87;;;1.10;;
5890;SDS011;2971;52.420;7.080;2022-07-06T08:46:48;3.47;;;1.20;;
5890;SDS011;2971;52.420;7.080;2022-07-06T08:49:17;3.73;;;1.10;;
5890;SDS011;2971;52.420;7.080;2022-07-06T08:51:43;3.10;;;1.00;;
5890;SDS011;2971;52.420;7.080;2022-07-06T08:54:10;4.37;;;1.17;;
5890;SDS011;2971;52.420;7.080;2022-07-06T08:56:36;2.07;;;1.07;;
5890;SDS011;2971;52.420;7.080;2022-07-06T08:59:02;4.13;;;1.33;;
5890;SDS011;2971;52.420;7.080;2022-07-06T09:01:28;2.83;;;1.10;;
5890;SDS011;2971;52.420;7.080;2022-07-06T09:03:54;1.40;;;0.87;;
5890;SDS011;2971;52.420;7.080;2022-07-06T09:06:23;4.80;;;1.07;;
5890;SDS011;2971;52.420;7.080;2022-07-06T09:08:50;2.30;;;1.00;;
5890;SDS011;2971;52.420;7.080;2022-07-06T09:11:24;4.10;;;1.30;;
5890;SDS011;2971;52.420;7.080;2022-07-06T09:13:50;3.50;;;1.53;;
5890;SDS011;2971;52.420;7.080;2022-07-06T09:16:16;4.57;;;1.40;;
5890;SDS011;2971;52.420;7.080;2022-07-06T09:18:45;2.60;;;1.10;;
5890;SDS011;2971;52.420;7.080;2022-07-06T09:21:11;5.17;;;1.20;;
5890;SDS011;2971;52.420;7.080;2022-07-06T09:23:37;1.53;;;1.10;;
5890;SDS011;2971;52.420;7.080;2022-07-06T09:26:06;4.33;;;1.50;;
5890;SDS011;2971;52.420;7.080;2022-07-06T09:28:41;3.50;;;1.60;;
5890;SDS011;2971;52.420;7.080;2022-07-06T09:31:10;5.20;;;1.20;;
5890;SDS011;2971;52.420;7.080;2022-07-06T09:33:35;3.03;;;1.20;;
5890;SDS011;2971;52.420;7.080;2022-07-06T09:36:01;2.13;;;1.00;;
5890;SDS011;2971;52.420;7.080;2022-07-06T09:38:27;2.97;;;1.30;;
5890;SDS011;2971;52.420;7.080;2022-07-06T09:40:53;3.10;;;1.03;;
5890;SDS011;2971;52.420;7.080;2022-07-06T09:43:22;2.50;;;1.10;;
5890;SDS011;2971;52.420;7.080;2022-07-06T09:45:49;4.20;;;1.40;;
5890;SDS011;2971;52.420;7.080;2022-07-06T09:48:19;3.20;;;1.23;;
5890;SDS011;2971;52.420;7.080;2022-07-06T09:50:50;2.97;;;0.97;;
5890;SDS011;2971;52.420;7.080;2022-07-06T09:53:16;2.00;;;1.20;;
5890;SDS011;2971;52.420;7.080;2022-07-06T09:55:43;2.03;;;1.00;;
5890;SDS011;2971;52.420;7.080;2022-07-06T09:58:12;1.73;;;0.97;;
5890;SDS011;2971;52.420;7.080;2022-07-06T10:00:38;2.03;;;0.90;;
5890;SDS011;2971;52.420;7.080;2022-07-06T10:03:04;1.93;;;1.00;;
5890;SDS011;2971;52.420;7.080;2022-07-06T10:05:30;2.83;;;1.20;;
5890;SDS011;2971;52.420;7.080;2022-07-06T10:07:57;2.43;;;1.03;;
5890;SDS011;2971;52.420;7.080;2022-07-06T10:10:28;3.27;;;1.20;;
5890;SDS011;2971;52.420;7.080;2022-07-06T10:12:54;2.20;;;1.00;;
5890;SDS011;2971;52.420;7.080;2022-07-06T10:15:22;3.33;;;1.40;;
5890;SDS011;2971;52.420;7.080;2022-07-06T10:17:49;4.33;;;1.20;;
5890;SDS011;2971;52.420;7.080;2022-07-06T10:20:15;2.93;;;1.00;;
5890;SDS011;2971;52.420;7.080;2022-07-06T10:22:41;3.50;;;1.33;;
5890;SDS011;2971;52.420;7.080;2022-07-06T10:25:06;3.37;;;1.20;;
5890;SDS011;2971;52.420;7.080;2022-07-06T10:27:32;3.23;;;1.00;;
5890;SDS011;2971;52.420;7.080;2022-07-06T10:29:58;2.23;;;1.20;;
5890;SDS011;2971;52.420;7.080;2022-07-06T10:32:23;5.57;;;1.00;;
5890;SDS011;2971;52.420;7.080;2022-07-06T10:34:49;2.40;;;1.10;;
5890;SDS011;2971;52.420;7.080;2022-07-06T10:37:22;3.87;;;1.10;;
5890;SDS011;2971;52.420;7.080;2022-07-06T10:39:49;4.67;;;1.40;;
5890;SDS011;2971;52.420;7.080;2022-07-06T10:45:20;4.60;;;1.10;;
5890;SDS011;2971;52.420;7.080;2022-07-06T10:50:35;4.07;;;1.10;;
5890;SDS011;2971;52.420;7.080;2022-07-06T10:53:01;2.43;;;1.00;;
5890;SDS011;2971;52.420;7.080;2022-07-06T10:55:30;2.50;;;0.90;;
5890;SDS011;2971;52.420;7.080;2022-07-06T10:57:58;2.93;;;1.00;;
5890;SDS011;2971;52.420;7.080;2022-07-06T11:00:24;2.07;;;1.00;;
5890;SDS011;2971;52.420;7.080;2022-07-06T11:02:49;2.03;;;0.90;;
5890;SDS011;2971;52.420;7.080;2022-07-06T11:08:08;4.87;;;1.27;;
5890;SDS011;2971;52.420;7.080;2022-07-06T11:10:47;1.50;;;0.90;;
5890;SDS011;2971;52.420;7.080;2022-07-06T11:13:26;3.83;;;1.20;;
5890;SDS011;2971;52.420;7.080;2022-07-06T11:15:52;2.67;;;1.00;;
5890;SDS011;2971;52.420;7.080;2022-07-06T11:18:27;1.30;;;0.90;;
5890;SDS011;2971;52.420;7.080;2022-07-06T11:23:40;3.50;;;1.00;;
5890;SDS011;2971;52.420;7.080;2022-07-06T11:26:05;2.10;;;1.30;;
5890;SDS011;2971;52.420;7.080;2022-07-06T11:28:31;2.90;;;0.80;;
5890;SDS011;2971;52.420;7.080;2022-07-06T11:30:56;4.80;;;1.17;;
5890;SDS011;2971;52.420;7.080;2022-07-06T11:33:28;1.70;;;0.80;;
5890;SDS011;2971;52.420;7.080;2022-07-06T11:38:39;3.33;;;0.93;;
5890;SDS011;2971;52.420;7.080;2022-07-06T11:41:05;0.90;;;0.80;;
5890;SDS011;2971;52.420;7.080;2022-07-06T11:43:31;7.27;;;1.47;;
5890;SDS011;2971;52.420;7.080;2022-07-06T11:45:56;1.87;;;0.90;;
5890;SDS011;2971;52.420;7.080;2022-07-06T11:48:22;1.73;;;1.10;;
5890;SDS011;2971;52.420;7.080;2022-07-06T11:51:00;2.80;;;1.10;;
5890;SDS011;2971;52.420;7.080;2022-07-06T11:53:26;2.37;;;1.03;;
5890;SDS011;2971;52.420;7.080;2022-07-06T11:55:52;3.60;;;0.90;;
5890;SDS011;2971;52.420;7.080;2022-07-06T11:58:18;4.23;;;1.00;;
5890;SDS011;2971;52.420;7.080;2022-07-06T12:01:02;2.23;;;1.03;;
5890;SDS011;2971;52.420;7.080;2022-07-06T12:03:34;3.37;;;1.20;;
5890;SDS011;2971;52.420;7.080;2022-07-06T12:06:04;3.90;;;1.10;;
5890;SDS011;2971;52.420;7.080;2022-07-06T12:08:31;11.10;;;1.67;;
5890;SDS011;2971;52.420;7.080;2022-07-06T12:10:58;4.93;;;1.17;;
5890;SDS011;2971;52.420;7.080;2022-07-06T12:13:24;16.50;;;2.57;;
5890;SDS011;2971;52.420;7.080;2022-07-06T12:15:50;1.73;;;0.83;;
5890;SDS011;2971;52.420;7.080;2022-07-06T12:18:15;2.33;;;1.10;;
5890;SDS011;2971;52.420;7.080;2022-07-06T12:20:41;8.90;;;1.17;;
5890;SDS011;2971;52.420;7.080;2022-07-06T12:23:07;3.57;;;1.03;;
5890;SDS011;2971;52.420;7.080;2022-07-06T12:25:36;7.47;;;1.43;;
5890;SDS011;2971;52.420;7.080;2022-07-06T12:28:02;2.27;;;0.90;;
5890;SDS011;2971;52.420;7.080;2022-07-06T12:30:28;2.83;;;0.90;;
5890;SDS011;2971;52.420;7.080;2022-07-06T12:33:13;3.00;;;0.97;;
5890;SDS011;2971;52.420;7.080;2022-07-06T12:35:45;18.53;;;1.80;;
5890;SDS011;2971;52.420;7.080;2022-07-06T12:38:10;1.87;;;1.10;;
5890;SDS011;2971;52.420;7.080;2022-07-06T12:40:36;1.70;;;1.03;;
5890;SDS011;2971;52.420;7.080;2022-07-06T12:43:02;4.83;;;1.23;;
5890;SDS011;2971;52.420;7.080;2022-07-06T12:45:29;1.57;;;1.10;;
5890;SDS011;2971;52.420;7.080;2022-07-06T12:48:02;2.43;;;1.00;;
5890;SDS011;2971;52.420;7.080;2022-07-06T12:50:39;3.03;;;0.93;;
5890;SDS011;2971;52.420;7.080;2022-07-06T12:53:05;3.70;;;1.10;;
5890;SDS011;2971;52.420;7.080;2022-07-06T12:55:48;2.03;;;1.00;;
5890;SDS011;2971;52.420;7.080;2022-07-06T12:58:20;4.47;;;0.93;;
5890;SDS011;2971;52.420;7.080;2022-07-06T13:00:45;2.97;;;1.10;;
5890;SDS011;2971;52.420;7.080;2022-07-06T13:03:11;4.37;;;1.03;;
5890;SDS011;2971;52.420;7.080;2022-07-06T13:05:36;3.70;;;1.37;;
5890;SDS011;2971;52.420;7.080;2022-07-06T13:08:03;1.07;;;0.80;;
5890;SDS011;2971;52.420;7.080;2022-07-06T13:10:29;4.97;;;1.27;;
5890;SDS011;2971;52.420;7.080;2022-07-06T13:12:55;5.10;;;1.13;;
5890;SDS011;2971;52.420;7.080;2022-07-06T13:15:21;2.87;;;1.20;;
5890;SDS011;2971;52.420;7.080;2022-07-06T13:17:46;6.63;;;1.50;;
5890;SDS011;2971;52.420;7.080;2022-07-06T13:20:12;1.57;;;1.00;;
5890;SDS011;2971;52.420;7.080;2022-07-06T13:22:38;2.50;;;1.20;;
5890;SDS011;2971;52.420;7.080;2022-07-06T13:25:04;3.07;;;1.27;;
5890;SDS011;2971;52.420;7.080;2022-07-06T13:27:30;3.60;;;1.20;;
5890;SDS011;2971;52.420;7.080;2022-07-06T13:29:55;1.63;;;1.00;;
5890;SDS011;2971;52.420;7.080;2022-07-06T13:32:21;2.43;;;1.03;;
5890;SDS011;2971;52.420;7.080;2022-07-06T13:34:46;4.50;;;1.20;;
5890;SDS011;2971;52.420;7.080;2022-07-06T13:37:12;2.70;;;1.20;;
5890;SDS011;2971;52.420;7.080;2022-07-06T13:39:37;3.17;;;1.30;;
5890;SDS011;2971;52.420;7.080;2022-07-06T13:42:03;5.00;;;1.60;;
5890;SDS011;2971;52.420;7.080;2022-07-06T13:44:29;5.17;;;1.63;;
5890;SDS011;2971;52.420;7.080;2022-07-06T13:46:54;5.37;;;1.57;;
5890;SDS011;2971;52.420;7.080;2022-07-06T13:49:20;1.33;;;1.00;;
5890;SDS011;2971;52.420;7.080;2022-07-06T13:51:45;2.30;;;1.10;;
5890;SDS011;2971;52.420;7.080;2022-07-06T13:54:11;3.53;;;1.10;;
5890;SDS011;2971;52.420;7.080;2022-07-06T13:56:37;3.33;;;1.10;;
5890;SDS011;2971;52.420;7.080;2022-07-06T13:59:04;2.83;;;1.23;;
5890;SDS011;2971;52.420;7.080;2022-07-06T14:01:29;2.00;;;1.00;;
5890;SDS011;2971;52.420;7.080;2022-07-06T14:03:55;20.30;;;3.50;;
5890;SDS011;2971;52.420;7.080;2022-07-06T14:06:20;4.17;;;1.10;;
5890;SDS011;2971;52.420;7.080;2022-07-06T14:08:46;1.53;;;1.10;;
5890;SDS011;2971;52.420;7.080;2022-07-06T14:11:11;2.13;;;0.90;;
5890;SDS011;2971;52.420;7.080;2022-07-06T14:13:37;2.97;;;1.13;;
5890;SDS011;2971;52.420;7.080;2022-07-06T14:16:03;2.70;;;0.93;;
5890;SDS011;2971;52.420;7.080;2022-07-06T14:18:29;2.97;;;1.27;;
5890;SDS011;2971;52.420;7.080;2022-07-06T14:20:55;2.37;;;1.10;;
5890;SDS011;2971;52.420;7.080;2022-07-06T14:23:20;4.40;;;1.20;;
5890;SDS011;2971;52.420;7.080;2022-07-06T14:25:46;3.80;;;1.20;;
5890;SDS011;2971;52.420;7.080;2022-07-06T14:28:12;3.43;;;1.13;;
5890;SDS011;2971;52.420;7.080;2022-07-06T14:30:38;3.50;;;1.10;;
5890;SDS011;2971;52.420;7.080;2022-07-06T14:33:06;3.57;;;1.13;;
5890;SDS011;2971;52.420;7.080;2022-07-06T14:38:14;2.20;;;1.13;;
5890;SDS011;2971;52.420;7.080;2022-07-06T14:40:40;1.63;;;1.13;;
5890;SDS011;2971;52.420;7.080;2022-07-06T14:43:05;2.80;;;1.30;;
5890;SDS011;2971;52.420;7.080;2022-07-06T14:45:31;2.20;;;1.17;;
5890;SDS011;2971;52.420;7.080;2022-07-06T14:47:57;2.70;;;1.10;;
5890;SDS011;2971;52.420;7.080;2022-07-06T14:50:22;3.03;;;1.43;;
5890;SDS011;2971;52.420;7.080;2022-07-06T14:52:51;3.07;;;1.10;;
5890;SDS011;2971;52.420;7.080;2022-07-06T14:55:17;2.03;;;1.13;;
5890;SDS011;2971;52.420;7.080;2022-07-06T14:57:43;3.20;;;1.27;;
5890;SDS011;2971;52.420;7.080;2022-07-06T15:00:08;5.33;;;1.67;;
5890;SDS011;2971;52.420;7.080;2022-07-06T15:02:34;3.90;;;1.40;;
5890;SDS011;2971;52.420;7.080;2022-07-06T15:05:00;2.53;;;1.20;;
5890;SDS011;2971;52.420;7.080;2022-07-06T15:07:26;1.80;;;1.00;;
5890;SDS011;2971;52.420;7.080;2022-07-06T15:09:51;4.40;;;1.50;;
5890;SDS011;2971;52.420;7.080;2022-07-06T15:12:16;3.43;;;1.43;;
5890;SDS011;2971;52.420;7.080;2022-07-06T15:14:42;2.77;;;1.20;;
5890;SDS011;2971;52.420;7.080;2022-07-06T15:17:07;3.47;;;1.50;;
5890;SDS011;2971;52.420;7.080;2022-07-06T15:19:33;3.40;;;1.40;;
5890;SDS011;2971;52.420;7.080;2022-07-06T15:21:58;3.17;;;1.43;;
5890;SDS011;2971;52.420;7.080;2022-07-06T15:24:24;2.47;;;1.20;;
5890;SDS011;2971;52.420;7.080;2022-07-06T15:26:50;2.33;;;1.10;;
5890;SDS011;2971;52.420;7.080;2022-07-06T15:29:15;3.40;;;1.30;;